createdAt,value
2023-03-15T15:42:27.552Z,21.31
2023-03-15T15:46:26.861Z,21.27
2023-03-15T15:50:26.781Z,21.78
2023-03-15T15:54:26.760Z,23.18
2023-03-15T15:58:26.733Z,22.16
2023-03-15T16:02:26.770Z,22.89
2023-03-15T16:06:26.650Z,22.55
2023-03-15T16:10:26.598Z,21.49
2023-03-15T16:14:26.616Z,21.04
2023-03-15T16:18:26.651Z,20.38
2023-03-15T16:22:26.850Z,19.94
2023-03-15T16:26:26.786Z,19.71
2023-03-15T16:30:26.824Z,19.65
2023-03-15T16:34:26.829Z,19.76
2023-03-15T16:38:26.801Z,19.86
2023-03-15T16:42:26.843Z,19.83
2023-03-15T16:46:26.983Z,19.86
2023-03-15T16:50:27.076Z,19.80
2023-03-15T16:54:40.335Z,19.71
2023-03-15T16:58:27.894Z,19.71
2023-03-15T17:02:26.952Z,19.62
2023-03-15T17:06:26.819Z,19.64
2023-03-15T17:10:26.841Z,19.62
2023-03-15T17:14:26.796Z,19.60
2023-03-15T17:18:26.733Z,19.64
2023-03-15T17:22:26.660Z,19.64
2023-03-15T17:26:26.686Z,19.62
2023-03-15T17:30:26.728Z,19.67
2023-03-15T17:34:26.624Z,19.68
2023-03-15T17:38:26.628Z,19.75
2023-03-15T17:42:26.664Z,19.74
2023-03-15T17:46:26.683Z,19.77
2023-03-15T17:50:26.617Z,19.67
2023-03-15T17:54:26.631Z,19.71
2023-03-15T17:58:26.609Z,19.71
2023-03-15T18:02:26.635Z,19.71
2023-03-15T18:06:26.597Z,19.68
2023-03-15T18:10:26.689Z,19.71
2023-03-15T18:14:26.588Z,19.74
2023-03-15T18:18:26.745Z,19.73
2023-03-15T18:22:26.610Z,19.77
2023-03-15T18:26:26.651Z,19.78
2023-03-15T18:30:26.605Z,19.79
2023-03-15T18:34:26.597Z,19.73
2023-03-15T18:38:26.599Z,19.80
2023-03-15T18:42:26.604Z,19.84
2023-03-15T18:46:26.749Z,19.84
2023-03-15T18:50:26.594Z,19.92
2023-03-15T18:54:26.610Z,19.97
2023-03-15T18:58:26.588Z,19.91
2023-03-15T19:02:26.671Z,19.88
2023-03-15T19:06:26.680Z,19.95
2023-03-15T19:10:26.618Z,19.98
2023-03-15T19:14:26.588Z,19.97
2023-03-15T19:18:26.623Z,20.01
2023-03-15T19:22:26.634Z,20.07
2023-03-15T19:26:26.672Z,20.10
2023-03-15T19:30:26.674Z,20.19
2023-03-15T19:34:26.718Z,20.25
2023-03-15T19:38:26.725Z,20.24
2023-03-15T19:42:26.732Z,20.31
2023-03-15T19:46:27.372Z,20.36
2023-03-15T19:50:26.749Z,20.45
2023-03-15T19:54:27.737Z,20.43
2023-03-15T19:58:26.855Z,20.45
2023-03-15T20:02:26.872Z,20.52
2023-03-15T20:06:26.857Z,20.52
2023-03-15T20:10:26.977Z,20.58
2023-03-15T20:14:27.008Z,20.70
2023-03-15T20:18:27.027Z,20.67
2023-03-15T20:22:26.999Z,20.75
2023-03-15T20:26:27.074Z,20.69
2023-03-15T20:30:28.066Z,20.76
2023-03-15T20:34:27.182Z,20.81
2023-03-15T20:38:27.198Z,20.82
2023-03-15T20:42:27.226Z,20.85
2023-03-15T20:46:27.357Z,20.90
2023-03-15T20:50:27.378Z,20.94
2023-03-15T20:54:27.351Z,20.96
2023-03-15T20:58:27.431Z,20.96
2023-03-15T21:02:27.449Z,20.93
2023-03-15T21:06:27.576Z,21.01
2023-03-15T21:10:28.161Z,20.96
2023-03-15T21:14:27.581Z,20.98
2023-03-15T21:18:27.694Z,21.01
2023-03-15T21:22:27.618Z,21.06
2023-03-15T21:26:27.694Z,21.04
2023-03-15T21:30:27.771Z,21.05
2023-03-15T21:34:27.783Z,21.09
2023-03-15T21:38:27.839Z,21.14
2023-03-15T21:42:27.924Z,21.05
2023-03-15T21:46:28.053Z,21.15
2023-03-15T21:50:27.974Z,21.12
2023-03-15T21:54:28.045Z,21.11
2023-03-15T21:58:28.126Z,21.12
2023-03-15T22:02:28.197Z,21.20
2023-03-15T22:06:28.271Z,21.21
2023-03-15T22:10:28.349Z,21.21
2023-03-15T22:14:28.424Z,21.29
2023-03-15T22:18:28.550Z,21.26
2023-03-15T22:22:28.620Z,21.32
2023-03-15T22:26:28.781Z,21.29
2023-03-15T22:30:28.910Z,21.24
2023-03-15T22:34:28.944Z,21.24
2023-03-15T22:38:31.716Z,21.26
2023-03-15T22:42:29.727Z,21.24
2023-03-15T22:46:29.010Z,21.29
2023-03-15T22:50:28.970Z,21.24
2023-03-15T22:54:28.959Z,21.18
2023-03-15T22:58:28.895Z,21.27
2023-03-15T23:02:28.898Z,21.22
2023-03-15T23:06:31.799Z,21.24
2023-03-15T23:10:29.721Z,21.27
2023-03-15T23:14:28.775Z,21.20
2023-03-15T23:18:28.766Z,21.25
2023-03-15T23:22:28.753Z,21.21
2023-03-15T23:26:28.635Z,21.24
2023-03-15T23:30:29.020Z,21.18
2023-03-15T23:34:28.573Z,21.17
2023-03-15T23:38:28.551Z,21.19
2023-03-15T23:42:28.523Z,21.08
2023-03-15T23:46:28.535Z,21.10
2023-03-15T23:50:28.780Z,21.11
2023-03-15T23:54:28.415Z,21.12
2023-03-15T23:58:28.338Z,21.04
